Ferry Osaka II — JD3858 — position and weather

sailwx.info

Track history (hours):
 
Tides and Currents Weather Stations Pressure Air Temp Water Temp Dewpoint Dewpoint Depression Visibility Wind Speed Wind Dir Waves Ship Positions

Ferry Osaka II

Last reported at 2017-Nov-18 23:01 UTC. Time now 2017-Nov-18 23:25 UTC.
Position N 34°38' E 135°23'.

Length 183 m; draft 6.7 m.

Type: Passenger vessel. MMSI: 431006802.

Date/timePositionNaut miles runAvg speedWind from/ knotsBaromVisibWave heightAir tempDewpointWater temp
2017-Nov-18 23:01N 34°38' E 135°23'917.7
2017-Nov-18 22:31N 34°35' E 135°13'917.3
2017-Nov-18 22:00N 34°36' E 135°02'816.0
2017-Nov-18 21:31N 34°35' E 134°53'2 0.1
2017-Nov-17 12:29N 34°34' E 134°50'1021.7
2017-Nov-17 12:00N 34°37' E 135°02'1121.4
2017-Nov-17 11:30N 34°36' E 135°15'917.4
2017-Nov-17 11:00N 34°37' E 135°25'0 0.8
2017-Nov-17 10:26N 34°37' E 135°26'0 0.0
2017-Nov-17 09:56N 34°37' E 135°26'0 0.0
2017-Nov-17 09:02N 34°37' E 135°26'0 0.0
2017-Nov-17 08:56N 34°37' E 135°26'0 0.0
2017-Nov-17 08:26N 34°37' E 135°26'0 0.0
2017-Nov-17 07:50N 34°37' E 135°26'0 0.0
2017-Nov-17 07:26N 34°37' E 135°26'0 0.0
2017-Nov-17 06:56N 34°37' E 135°26'0 0.0
2017-Nov-17 06:26N 34°37' E 135°26'0 0.0
2017-Nov-17 05:50N 34°37' E 135°26'0 0.0
2017-Nov-17 05:26N 34°37' E 135°26'0 0.0
2017-Nov-17 04:50N 34°37' E 135°26'0 0.0
2017-Nov-17 04:02N 34°37' E 135°26'0 0.0
2017-Nov-17 03:50N 34°37' E 135°26'0 0.0
2017-Nov-17 03:26N 34°37' E 135°26'0 0.0
2017-Nov-17 02:44N 34°37' E 135°26'0 0.0
2017-Nov-17 02:26N 34°37' E 135°26'0 0.0
2017-Nov-17 01:56N 34°37' E 135°26'0 0.0
2017-Nov-17 01:26N 34°37' E 135°26'0 0.0
2017-Nov-17 00:38N 34°37' E 135°26'0 0.0
2017-Nov-17 00:26N 34°37' E 135°26'0 0.0
2017-Nov-16 23:56N 34°37' E 135°26'0 0.0
2017-Nov-16 23:30N 34°37' E 135°26'4 7.2
2017-Nov-16 23:00N 34°37' E 135°21'918.2
2017-Nov-16 22:31N 34°35' E 135°11'918.6
2017-Nov-16 22:00N 34°37' E 134°60'1019.4
2017-Nov-16 21:29N 34°33' E 134°49'3 0.1
2017-Nov-15 12:30N 34°35' E 134°50'1020.1
2017-Nov-15 12:00N 34°37' E 135°03'1020.4
2017-Nov-15 11:30N 34°36' E 135°15'917.1
2017-Nov-15 11:00N 34°37' E 135°25'1 1.0
2017-Nov-15 10:27N 34°37' E 135°26'0 0.0
2017-Nov-15 09:57N 34°37' E 135°26'0 0.0
2017-Nov-15 09:15N 34°37' E 135°26'0 0.0
2017-Nov-15 08:57N 34°37' E 135°26'0 0.0
2017-Nov-15 08:27N 34°37' E 135°26'0 0.0
2017-Nov-15 07:57N 34°37' E 135°26'0 0.0
2017-Nov-15 07:21N 34°37' E 135°26'0 0.0
2017-Nov-15 06:51N 34°37' E 135°26'0 0.0
2017-Nov-15 06:27N 34°37' E 135°26'0 0.0
2017-Nov-15 05:57N 34°37' E 135°26'0 0.0
2017-Nov-15 05:21N 34°37' E 135°26'0 0.0
2017-Nov-15 04:51N 34°37' E 135°26'0 0.0
2017-Nov-15 04:27N 34°37' E 135°26'0 0.0
2017-Nov-15 03:57N 34°37' E 135°26'0 0.0
2017-Nov-15 03:21N 34°37' E 135°26'0 0.0
2017-Nov-15 02:57N 34°37' E 135°26'0 0.0
2017-Nov-15 02:21N 34°37' E 135°26'0 0.0
2017-Nov-15 01:51N 34°37' E 135°26'0 0.0
2017-Nov-15 01:15N 34°37' E 135°26'0 0.0
2017-Nov-15 00:51N 34°37' E 135°26'0 0.0
2017-Nov-15 00:21N 34°37' E 135°26'0 0.0
2017-Nov-14 23:51N 34°37' E 135°26'0 0.0
2017-Nov-14 23:28N 34°37' E 135°26'3 6.0
2017-Nov-14 23:01N 34°38' E 135°23'918.5
2017-Nov-14 22:31N 34°35' E 135°12'1019.2
2017-Nov-14 22:01N 34°37' E 135°00'1119.8
2017-Nov-14 21:29N 34°33' E 134°49'31 0.7
2017-Nov-13 01:59N 34°37' E 135°26'0 0.0
2017-Nov-13 00:29N 34°37' E 135°26'0 0.0
2017-Nov-12 23:59N 34°37' E 135°26'0 0.0
2017-Nov-12 23:30N 34°37' E 135°26'2 5.0
2017-Nov-12 23:01N 34°38' E 135°23'917.8
2017-Nov-12 22:30N 34°35' E 135°13'1018.4
2017-Nov-12 21:59N 34°37' E 135°01'919.4
2017-Nov-12 21:30N 34°34' E 134°50'1 0.0
2017-Nov-11 12:36N 34°34' E 134°49'220.9
2017-Nov-11 12:30N 34°35' E 134°52'1018.5
2017-Nov-11 11:59N 34°36' E 135°03'1020.2
2017-Nov-11 11:30N 34°36' E 135°15'816.7
2017-Nov-11 11:00N 34°37' E 135°25'1 0.8
2017-Nov-11 10:21N 34°37' E 135°26'0 0.0
2017-Nov-11 09:39N 34°37' E 135°26'0 0.0
2017-Nov-11 09:27N 34°37' E 135°26'0 0.0
2017-Nov-11 08:57N 34°37' E 135°26'0 0.0
2017-Nov-11 08:21N 34°37' E 135°26'0 0.0
2017-Nov-11 07:57N 34°37' E 135°26'0 0.0
2017-Nov-11 07:27N 34°37' E 135°26'0 0.0
2017-Nov-11 06:57N 34°37' E 135°26'0 0.0
2017-Nov-11 06:27N 34°37' E 135°26'0 0.0
2017-Nov-11 05:57N 34°37' E 135°26'0 0.0
2017-Nov-11 05:21N 34°37' E 135°26'0 0.0
2017-Nov-11 04:57N 34°37' E 135°26'0 0.0
2017-Nov-11 04:27N 34°37' E 135°26'0 0.0
2017-Nov-11 03:51N 34°37' E 135°26'0 0.0
2017-Nov-11 03:27N 34°37' E 135°26'0 0.0
2017-Nov-11 02:57N 34°37' E 135°26'0 0.0
2017-Nov-11 02:21N 34°37' E 135°26'0 0.0
2017-Nov-11 01:57N 34°37' E 135°26'0 0.0
2017-Nov-11 01:27N 34°37' E 135°26'0 0.0
2017-Nov-11 00:39N 34°37' E 135°26'0 0.0
2017-Nov-11 00:27N 34°37' E 135°26'0 0.0
2017-Nov-10 23:57N 34°37' E 135°26'0 0.0
2017-Nov-10 23:30N 34°37' E 135°26'3 5.5
2017-Nov-10 23:00N 34°38' E 135°23'815.8
2017-Nov-10 22:30N 34°35' E 135°13'918.6
2017-Nov-10 22:00N 34°36' E 135°02'1019.5
2017-Nov-10 21:30N 34°33' E 134°51'1 0.0
2017-Nov-09 12:31N 34°34' E 134°50'121.3
2017-Nov-09 12:28N 34°35' E 134°51'920.0
2017-Nov-09 12:00N 34°37' E 135°02'1020.8
2017-Nov-09 11:30N 34°36' E 135°15'916.9
2017-Nov-09 11:00N 34°37' E 135°25'0 0.9
2017-Nov-09 10:29N 34°37' E 135°26'0 0.0
2017-Nov-09 09:59N 34°37' E 135°26'0 0.0
2017-Nov-09 09:23N 34°37' E 135°26'0 0.0
2017-Nov-09 08:53N 34°37' E 135°26'0 0.0
2017-Nov-09 08:29N 34°37' E 135°26'0 0.0
2017-Nov-09 07:59N 34°37' E 135°26'0 0.0
2017-Nov-09 07:29N 34°37' E 135°26'0 0.0
2017-Nov-09 05:59N 34°37' E 135°26'0 0.0
2017-Nov-09 05:29N 34°37' E 135°26'0 0.0
2017-Nov-09 04:53N 34°37' E 135°26'0 0.0
2017-Nov-09 04:29N 34°37' E 135°26'0 0.0
2017-Nov-09 03:59N 34°37' E 135°26'0 0.0
2017-Nov-09 03:29N 34°37' E 135°26'0 0.0
2017-Nov-09 02:59N 34°37' E 135°26'0 0.0
2017-Nov-09 02:17N 34°37' E 135°26'0 0.0
2017-Nov-09 01:59N 34°37' E 135°26'0 0.0
2017-Nov-09 01:29N 34°37' E 135°26'0 0.0
2017-Nov-09 00:59N 34°37' E 135°26'0 0.0
2017-Nov-09 00:23N 34°37' E 135°26'0 0.0
2017-Nov-08 23:59N 34°37' E 135°26'0 0.0
2017-Nov-08 23:30N 34°37' E 135°26'  
Track history (hours):
 
Tides and Currents Weather Stations Pressure Air Temp Water Temp Dewpoint Dewpoint Depression Visibility Wind Speed Wind Dir Waves Ship Positions

Ferry Osaka II

Last reported at 2017-Nov-18 23:01 UTC. Time now 2017-Nov-18 23:25 UTC.
Position N 34°38' E 135°23'.

Length 183 m; draft 6.7 m.

Type: Passenger vessel. MMSI: 431006802.

Date/timePositionNaut miles runAvg speedWind from/ knotsBaromVisibWave heightAir tempDewpointWater temp
2017-Nov-18 23:01N 34°38' E 135°23'917.7
2017-Nov-18 22:31N 34°35' E 135°13'917.3
2017-Nov-18 22:00N 34°36' E 135°02'816.0
2017-Nov-18 21:31N 34°35' E 134°53'2 0.1
2017-Nov-17 12:29N 34°34' E 134°50'1021.7
2017-Nov-17 12:00N 34°37' E 135°02'1121.4
2017-Nov-17 11:30N 34°36' E 135°15'917.4
2017-Nov-17 11:00N 34°37' E 135°25'0 0.8
2017-Nov-17 10:26N 34°37' E 135°26'0 0.0
2017-Nov-17 09:56N 34°37' E 135°26'0 0.0
2017-Nov-17 09:02N 34°37' E 135°26'0 0.0
2017-Nov-17 08:56N 34°37' E 135°26'0 0.0
2017-Nov-17 08:26N 34°37' E 135°26'0 0.0
2017-Nov-17 07:50N 34°37' E 135°26'0 0.0
2017-Nov-17 07:26N 34°37' E 135°26'0 0.0
2017-Nov-17 06:56N 34°37' E 135°26'0 0.0
2017-Nov-17 06:26N 34°37' E 135°26'0 0.0
2017-Nov-17 05:50N 34°37' E 135°26'0 0.0
2017-Nov-17 05:26N 34°37' E 135°26'0 0.0
2017-Nov-17 04:50N 34°37' E 135°26'0 0.0
2017-Nov-17 04:02N 34°37' E 135°26'0 0.0
2017-Nov-17 03:50N 34°37' E 135°26'0 0.0
2017-Nov-17 03:26N 34°37' E 135°26'0 0.0
2017-Nov-17 02:44N 34°37' E 135°26'0 0.0
2017-Nov-17 02:26N 34°37' E 135°26'0 0.0
2017-Nov-17 01:56N 34°37' E 135°26'0 0.0
2017-Nov-17 01:26N 34°37' E 135°26'0 0.0
2017-Nov-17 00:38N 34°37' E 135°26'0 0.0
2017-Nov-17 00:26N 34°37' E 135°26'0 0.0
2017-Nov-16 23:56N 34°37' E 135°26'0 0.0
2017-Nov-16 23:30N 34°37' E 135°26'4 7.2
2017-Nov-16 23:00N 34°37' E 135°21'918.2
2017-Nov-16 22:31N 34°35' E 135°11'918.6
2017-Nov-16 22:00N 34°37' E 134°60'1019.4
2017-Nov-16 21:29N 34°33' E 134°49'3 0.1
2017-Nov-15 12:30N 34°35' E 134°50'1020.1
2017-Nov-15 12:00N 34°37' E 135°03'1020.4
2017-Nov-15 11:30N 34°36' E 135°15'917.1
2017-Nov-15 11:00N 34°37' E 135°25'1 1.0
2017-Nov-15 10:27N 34°37' E 135°26'0 0.0
2017-Nov-15 09:57N 34°37' E 135°26'0 0.0
2017-Nov-15 09:15N 34°37' E 135°26'0 0.0
2017-Nov-15 08:57N 34°37' E 135°26'0 0.0
2017-Nov-15 08:27N 34°37' E 135°26'0 0.0
2017-Nov-15 07:57N 34°37' E 135°26'0 0.0
2017-Nov-15 07:21N 34°37' E 135°26'0 0.0
2017-Nov-15 06:51N 34°37' E 135°26'0 0.0
2017-Nov-15 06:27N 34°37' E 135°26'0 0.0
2017-Nov-15 05:57N 34°37' E 135°26'0 0.0
2017-Nov-15 05:21N 34°37' E 135°26'0 0.0
2017-Nov-15 04:51N 34°37' E 135°26'0 0.0
2017-Nov-15 04:27N 34°37' E 135°26'0 0.0
2017-Nov-15 03:57N 34°37' E 135°26'0 0.0
2017-Nov-15 03:21N 34°37' E 135°26'0 0.0
2017-Nov-15 02:57N 34°37' E 135°26'0 0.0
2017-Nov-15 02:21N 34°37' E 135°26'0 0.0
2017-Nov-15 01:51N 34°37' E 135°26'0 0.0
2017-Nov-15 01:15N 34°37' E 135°26'0 0.0
2017-Nov-15 00:51N 34°37' E 135°26'0 0.0
2017-Nov-15 00:21N 34°37' E 135°26'0 0.0
2017-Nov-14 23:51N 34°37' E 135°26'0 0.0
2017-Nov-14 23:28N 34°37' E 135°26'3 6.0
2017-Nov-14 23:01N 34°38' E 135°23'918.5
2017-Nov-14 22:31N 34°35' E 135°12'1019.2
2017-Nov-14 22:01N 34°37' E 135°00'1119.8
2017-Nov-14 21:29N 34°33' E 134°49'31 0.7
2017-Nov-13 01:59N 34°37' E 135°26'0 0.0
2017-Nov-13 00:29N 34°37' E 135°26'0 0.0
2017-Nov-12 23:59N 34°37' E 135°26'0 0.0
2017-Nov-12 23:30N 34°37' E 135°26'2 5.0
2017-Nov-12 23:01N 34°38' E 135°23'917.8
2017-Nov-12 22:30N 34°35' E 135°13'1018.4
2017-Nov-12 21:59N 34°37' E 135°01'919.4
2017-Nov-12 21:30N 34°34' E 134°50'1 0.0
2017-Nov-11 12:36N 34°34' E 134°49'220.9
2017-Nov-11 12:30N 34°35' E 134°52'1018.5
2017-Nov-11 11:59N 34°36' E 135°03'1020.2
2017-Nov-11 11:30N 34°36' E 135°15'816.7
2017-Nov-11 11:00N 34°37' E 135°25'1 0.8
2017-Nov-11 10:21N 34°37' E 135°26'0 0.0
2017-Nov-11 09:39N 34°37' E 135°26'0 0.0
2017-Nov-11 09:27N 34°37' E 135°26'0 0.0
2017-Nov-11 08:57N 34°37' E 135°26'0 0.0
2017-Nov-11 08:21N 34°37' E 135°26'0 0.0
2017-Nov-11 07:57N 34°37' E 135°26'0 0.0
2017-Nov-11 07:27N 34°37' E 135°26'0 0.0
2017-Nov-11 06:57N 34°37' E 135°26'0 0.0
2017-Nov-11 06:27N 34°37' E 135°26'0 0.0
2017-Nov-11 05:57N 34°37' E 135°26'0 0.0
2017-Nov-11 05:21N 34°37' E 135°26'0 0.0
2017-Nov-11 04:57N 34°37' E 135°26'0 0.0
2017-Nov-11 04:27N 34°37' E 135°26'0 0.0
2017-Nov-11 03:51N 34°37' E 135°26'0 0.0
2017-Nov-11 03:27N 34°37' E 135°26'0 0.0
2017-Nov-11 02:57N 34°37' E 135°26'0 0.0
2017-Nov-11 02:21N 34°37' E 135°26'0 0.0
2017-Nov-11 01:57N 34°37' E 135°26'0 0.0
2017-Nov-11 01:27N 34°37' E 135°26'0 0.0
2017-Nov-11 00:39N 34°37' E 135°26'0 0.0
2017-Nov-11 00:27N 34°37' E 135°26'0 0.0
2017-Nov-10 23:57N 34°37' E 135°26'0 0.0
2017-Nov-10 23:30N 34°37' E 135°26'3 5.5
2017-Nov-10 23:00N 34°38' E 135°23'815.8
2017-Nov-10 22:30N 34°35' E 135°13'918.6
2017-Nov-10 22:00N 34°36' E 135°02'1019.5
2017-Nov-10 21:30N 34°33' E 134°51'1 0.0
2017-Nov-09 12:31N 34°34' E 134°50'121.3
2017-Nov-09 12:28N 34°35' E 134°51'920.0
2017-Nov-09 12:00N 34°37' E 135°02'1020.8
2017-Nov-09 11:30N 34°36' E 135°15'916.9
2017-Nov-09 11:00N 34°37' E 135°25'0 0.9
2017-Nov-09 10:29N 34°37' E 135°26'0 0.0
2017-Nov-09 09:59N 34°37' E 135°26'0 0.0
2017-Nov-09 09:23N 34°37' E 135°26'0 0.0
2017-Nov-09 08:53N 34°37' E 135°26'0 0.0
2017-Nov-09 08:29N 34°37' E 135°26'0 0.0
2017-Nov-09 07:59N 34°37' E 135°26'0 0.0
2017-Nov-09 07:29N 34°37' E 135°26'0 0.0
2017-Nov-09 05:59N 34°37' E 135°26'0 0.0
2017-Nov-09 05:29N 34°37' E 135°26'0 0.0
2017-Nov-09 04:53N 34°37' E 135°26'0 0.0
2017-Nov-09 04:29N 34°37' E 135°26'0 0.0
2017-Nov-09 03:59N 34°37' E 135°26'0 0.0
2017-Nov-09 03:29N 34°37' E 135°26'0 0.0
2017-Nov-09 02:59N 34°37' E 135°26'0 0.0
2017-Nov-09 02:17N 34°37' E 135°26'0 0.0
2017-Nov-09 01:59N 34°37' E 135°26'0 0.0
2017-Nov-09 01:29N 34°37' E 135°26'0 0.0
2017-Nov-09 00:59N 34°37' E 135°26'0 0.0
2017-Nov-09 00:23N 34°37' E 135°26'0 0.0
2017-Nov-08 23:59N 34°37' E 135°26'0 0.0
2017-Nov-08 23:30N 34°37' E 135°26'  

Dump ship's entire track history